sensor_id;sensor_type;location;lat;lon;timestamp;P1;durP1;ratioP1;P2;durP2;ratioP2
44000;SDS011;29660;42.892;24.710;2023-06-10T00:00:15;5.50;;;4.50;;
44000;SDS011;29660;42.892;24.710;2023-06-10T00:05:38;9.02;;;4.90;;
44000;SDS011;29660;42.892;24.710;2023-06-10T00:11:00;8.10;;;4.68;;
44000;SDS011;29660;42.892;24.710;2023-06-10T00:16:22;6.78;;;4.50;;
44000;SDS011;29660;42.892;24.710;2023-06-10T00:21:44;7.82;;;4.35;;
44000;SDS011;29660;42.892;24.710;2023-06-10T00:27:06;5.78;;;4.47;;
44000;SDS011;29660;42.892;24.710;2023-06-10T00:32:29;5.47;;;4.50;;
44000;SDS011;29660;42.892;24.710;2023-06-10T00:37:52;5.15;;;4.22;;
44000;SDS011;29660;42.892;24.710;2023-06-10T00:43:14;6.05;;;4.40;;
44000;SDS011;29660;42.892;24.710;2023-06-10T00:48:37;10.35;;;4.93;;
44000;SDS011;29660;42.892;24.710;2023-06-10T00:54:03;5.88;;;4.93;;
44000;SDS011;29660;42.892;24.710;2023-06-10T00:59:29;6.82;;;5.18;;
44000;SDS011;29660;42.892;24.710;2023-06-10T01:04:52;6.45;;;4.75;;
44000;SDS011;29660;42.892;24.710;2023-06-10T01:10:20;11.38;;;7.07;;
44000;SDS011;29660;42.892;24.710;2023-06-10T01:15:50;9.43;;;6.35;;
44000;SDS011;29660;42.892;24.710;2023-06-10T01:21:20;9.23;;;6.82;;
44000;SDS011;29660;42.892;24.710;2023-06-10T01:26:43;7.10;;;5.00;;
44000;SDS011;29660;42.892;24.710;2023-06-10T01:37:36;7.15;;;4.80;;
44000;SDS011;29660;42.892;24.710;2023-06-10T01:43:01;7.45;;;5.03;;
44000;SDS011;29660;42.892;24.710;2023-06-10T01:48:24;6.57;;;4.80;;
44000;SDS011;29660;42.892;24.710;2023-06-10T01:53:46;6.85;;;4.80;;
44000;SDS011;29660;42.892;24.710;2023-06-10T01:59:08;5.85;;;4.80;;
44000;SDS011;29660;42.892;24.710;2023-06-10T02:04:30;6.10;;;4.85;;
44000;SDS011;29660;42.892;24.710;2023-06-10T02:09:55;8.95;;;5.05;;
44000;SDS011;29660;42.892;24.710;2023-06-10T02:15:17;10.85;;;5.40;;
44000;SDS011;29660;42.892;24.710;2023-06-10T02:20:41;7.47;;;5.75;;
44000;SDS011;29660;42.892;24.710;2023-06-10T02:26:03;6.25;;;5.38;;
44000;SDS011;29660;42.892;24.710;2023-06-10T02:31:26;7.13;;;5.03;;
44000;SDS011;29660;42.892;24.710;2023-06-10T02:36:48;7.60;;;5.10;;
44000;SDS011;29660;42.892;24.710;2023-06-10T02:42:15;6.05;;;5.03;;
44000;SDS011;29660;42.892;24.710;2023-06-10T02:47:37;11.00;;;5.90;;
44000;SDS011;29660;42.892;24.710;2023-06-10T02:53:01;6.95;;;5.35;;
44000;SDS011;29660;42.892;24.710;2023-06-10T02:58:25;7.35;;;5.00;;
44000;SDS011;29660;42.892;24.710;2023-06-10T03:03:49;6.88;;;5.57;;
44000;SDS011;29660;42.892;24.710;2023-06-10T03:09:13;7.78;;;4.88;;
44000;SDS011;29660;42.892;24.710;2023-06-10T03:14:38;7.05;;;5.20;;
44000;SDS011;29660;42.892;24.710;2023-06-10T03:20:01;5.47;;;4.78;;
44000;SDS011;29660;42.892;24.710;2023-06-10T03:25:25;7.03;;;5.15;;
44000;SDS011;29660;42.892;24.710;2023-06-10T03:30:48;7.53;;;5.40;;
44000;SDS011;29660;42.892;24.710;2023-06-10T03:36:11;8.13;;;4.85;;
44000;SDS011;29660;42.892;24.710;2023-06-10T03:41:34;5.22;;;4.63;;
44000;SDS011;29660;42.892;24.710;2023-06-10T03:46:57;8.23;;;4.68;;
44000;SDS011;29660;42.892;24.710;2023-06-10T03:52:20;8.10;;;5.05;;
44000;SDS011;29660;42.892;24.710;2023-06-10T03:57:43;8.30;;;4.82;;
44000;SDS011;29660;42.892;24.710;2023-06-10T04:03:05;6.80;;;4.45;;
44000;SDS011;29660;42.892;24.710;2023-06-10T04:08:35;6.80;;;5.03;;
44000;SDS011;29660;42.892;24.710;2023-06-10T04:13:57;9.50;;;6.60;;
44000;SDS011;29660;42.892;24.710;2023-06-10T04:19:20;10.23;;;5.70;;
44000;SDS011;29660;42.892;24.710;2023-06-10T04:24:43;7.50;;;6.20;;
44000;SDS011;29660;42.892;24.710;2023-06-10T04:30:06;22.50;;;20.23;;
44000;SDS011;29660;42.892;24.710;2023-06-10T04:35:31;31.40;;;28.23;;
44000;SDS011;29660;42.892;24.710;2023-06-10T04:40:55;27.38;;;24.45;;
44000;SDS011;29660;42.892;24.710;2023-06-10T04:46:17;21.52;;;19.38;;
44000;SDS011;29660;42.892;24.710;2023-06-10T04:51:39;30.98;;;27.88;;
44000;SDS011;29660;42.892;24.710;2023-06-10T04:57:02;21.40;;;19.25;;
44000;SDS011;29660;42.892;24.710;2023-06-10T05:02:25;20.42;;;18.42;;
44000;SDS011;29660;42.892;24.710;2023-06-10T05:07:47;16.27;;;14.38;;
44000;SDS011;29660;42.892;24.710;2023-06-10T05:13:09;14.50;;;12.88;;
44000;SDS011;29660;42.892;24.710;2023-06-10T05:18:32;14.43;;;12.80;;
44000;SDS011;29660;42.892;24.710;2023-06-10T05:23:54;18.58;;;14.02;;
44000;SDS011;29660;42.892;24.710;2023-06-10T05:29:16;14.57;;;12.07;;
44000;SDS011;29660;42.892;24.710;2023-06-10T05:34:38;17.02;;;12.15;;
44000;SDS011;29660;42.892;24.710;2023-06-10T05:40:00;16.20;;;12.63;;
44000;SDS011;29660;42.892;24.710;2023-06-10T05:45:23;12.95;;;10.88;;
44000;SDS011;29660;42.892;24.710;2023-06-10T05:50:45;13.25;;;9.73;;
44000;SDS011;29660;42.892;24.710;2023-06-10T05:56:09;9.98;;;8.88;;
44000;SDS011;29660;42.892;24.710;2023-06-10T06:01:32;15.32;;;9.73;;
44000;SDS011;29660;42.892;24.710;2023-06-10T06:06:54;11.73;;;8.75;;
44000;SDS011;29660;42.892;24.710;2023-06-10T06:12:16;14.13;;;8.45;;
44000;SDS011;29660;42.892;24.710;2023-06-10T06:17:38;11.68;;;8.02;;
44000;SDS011;29660;42.892;24.710;2023-06-10T06:23:01;11.07;;;7.50;;
44000;SDS011;29660;42.892;24.710;2023-06-10T06:28:23;11.65;;;7.68;;
44000;SDS011;29660;42.892;24.710;2023-06-10T06:33:50;10.13;;;7.40;;
44000;SDS011;29660;42.892;24.710;2023-06-10T06:39:13;20.90;;;16.58;;
44000;SDS011;29660;42.892;24.710;2023-06-10T06:44:36;12.15;;;8.35;;
44000;SDS011;29660;42.892;24.710;2023-06-10T06:49:58;7.60;;;6.43;;
44000;SDS011;29660;42.892;24.710;2023-06-10T06:55:20;6.82;;;6.07;;
44000;SDS011;29660;42.892;24.710;2023-06-10T07:00:43;10.07;;;6.65;;
44000;SDS011;29660;42.892;24.710;2023-06-10T07:06:06;10.25;;;6.70;;
44000;SDS011;29660;42.892;24.710;2023-06-10T07:11:28;14.98;;;7.18;;
44000;SDS011;29660;42.892;24.710;2023-06-10T07:16:50;10.95;;;7.10;;
44000;SDS011;29660;42.892;24.710;2023-06-10T07:22:12;11.55;;;6.90;;
44000;SDS011;29660;42.892;24.710;2023-06-10T07:27:35;11.57;;;7.07;;
44000;SDS011;29660;42.892;24.710;2023-06-10T07:32:59;9.10;;;5.90;;
44000;SDS011;29660;42.892;24.710;2023-06-10T07:38:21;6.10;;;5.22;;
44000;SDS011;29660;42.892;24.710;2023-06-10T07:43:43;6.13;;;4.55;;
44000;SDS011;29660;42.892;24.710;2023-06-10T07:49:05;6.43;;;4.85;;
44000;SDS011;29660;42.892;24.710;2023-06-10T07:54:28;5.50;;;4.75;;
44000;SDS011;29660;42.892;24.710;2023-06-10T07:59:51;11.98;;;4.68;;
44000;SDS011;29660;42.892;24.710;2023-06-10T08:05:13;12.73;;;4.78;;
44000;SDS011;29660;42.892;24.710;2023-06-10T08:10:35;11.05;;;6.70;;
44000;SDS011;29660;42.892;24.710;2023-06-10T08:15:57;7.40;;;4.85;;
44000;SDS011;29660;42.892;24.710;2023-06-10T08:21:20;5.63;;;3.75;;
44000;SDS011;29660;42.892;24.710;2023-06-10T08:26:42;6.75;;;4.07;;
44000;SDS011;29660;42.892;24.710;2023-06-10T08:32:04;4.35;;;3.63;;
44000;SDS011;29660;42.892;24.710;2023-06-10T08:37:27;4.95;;;3.55;;
44000;SDS011;29660;42.892;24.710;2023-06-10T08:42:51;3.70;;;3.30;;
44000;SDS011;29660;42.892;24.710;2023-06-10T08:48:19;5.10;;;3.42;;
44000;SDS011;29660;42.892;24.710;2023-06-10T08:53:47;6.93;;;3.42;;
44000;SDS011;29660;42.892;24.710;2023-06-10T08:59:12;8.25;;;4.55;;
44000;SDS011;29660;42.892;24.710;2023-06-10T09:04:35;7.03;;;4.13;;
44000;SDS011;29660;42.892;24.710;2023-06-10T09:09:58;5.03;;;3.25;;
44000;SDS011;29660;42.892;24.710;2023-06-10T09:15:24;6.85;;;3.78;;
44000;SDS011;29660;42.892;24.710;2023-06-10T09:20:46;6.32;;;3.90;;
44000;SDS011;29660;42.892;24.710;2023-06-10T09:26:09;5.65;;;3.47;;
44000;SDS011;29660;42.892;24.710;2023-06-10T09:31:36;6.15;;;3.65;;
44000;SDS011;29660;42.892;24.710;2023-06-10T09:36:59;7.88;;;3.40;;
44000;SDS011;29660;42.892;24.710;2023-06-10T09:42:21;4.88;;;3.28;;
44000;SDS011;29660;42.892;24.710;2023-06-10T09:47:45;6.00;;;3.85;;
44000;SDS011;29660;42.892;24.710;2023-06-10T09:53:08;5.65;;;3.92;;
44000;SDS011;29660;42.892;24.710;2023-06-10T09:58:34;4.70;;;3.45;;
44000;SDS011;29660;42.892;24.710;2023-06-10T10:03:57;7.25;;;3.65;;
44000;SDS011;29660;42.892;24.710;2023-06-10T10:09:19;5.35;;;3.67;;
44000;SDS011;29660;42.892;24.710;2023-06-10T10:14:45;5.05;;;3.42;;
44000;SDS011;29660;42.892;24.710;2023-06-10T10:20:09;4.32;;;3.28;;
44000;SDS011;29660;42.892;24.710;2023-06-10T10:25:37;3.85;;;3.05;;
44000;SDS011;29660;42.892;24.710;2023-06-10T10:31:03;4.25;;;2.83;;
44000;SDS011;29660;42.892;24.710;2023-06-10T10:36:32;5.72;;;3.03;;
44000;SDS011;29660;42.892;24.710;2023-06-10T10:41:54;5.50;;;3.20;;
44000;SDS011;29660;42.892;24.710;2023-06-10T10:47:20;6.35;;;3.15;;
44000;SDS011;29660;42.892;24.710;2023-06-10T10:58:18;6.10;;;2.80;;
44000;SDS011;29660;42.892;24.710;2023-06-10T11:03:46;4.63;;;2.70;;
44000;SDS011;29660;42.892;24.710;2023-06-10T11:09:25;4.28;;;3.00;;
44000;SDS011;29660;42.892;24.710;2023-06-10T11:14:54;7.22;;;3.10;;
44000;SDS011;29660;42.892;24.710;2023-06-10T11:20:41;3.33;;;3.00;;
44000;SDS011;29660;42.892;24.710;2023-06-10T11:31:56;5.53;;;3.28;;
44000;SDS011;29660;42.892;24.710;2023-06-10T11:37:19;8.80;;;4.03;;
44000;SDS011;29660;42.892;24.710;2023-06-10T11:42:43;4.72;;;3.33;;
44000;SDS011;29660;42.892;24.710;2023-06-10T11:48:05;4.20;;;3.03;;
44000;SDS011;29660;42.892;24.710;2023-06-10T11:53:28;5.18;;;3.15;;
44000;SDS011;29660;42.892;24.710;2023-06-10T11:58:53;6.55;;;3.10;;
44000;SDS011;29660;42.892;24.710;2023-06-10T12:04:20;4.78;;;3.00;;
44000;SDS011;29660;42.892;24.710;2023-06-10T12:09:43;5.15;;;3.00;;
44000;SDS011;29660;42.892;24.710;2023-06-10T12:15:05;4.32;;;3.13;;
44000;SDS011;29660;42.892;24.710;2023-06-10T12:20:29;3.35;;;2.78;;
44000;SDS011;29660;42.892;24.710;2023-06-10T12:25:55;6.63;;;3.00;;
44000;SDS011;29660;42.892;24.710;2023-06-10T12:31:18;4.38;;;3.00;;
44000;SDS011;29660;42.892;24.710;2023-06-10T12:36:41;8.65;;;6.32;;
44000;SDS011;29660;42.892;24.710;2023-06-10T12:42:12;4.47;;;2.85;;
44000;SDS011;29660;42.892;24.710;2023-06-10T12:47:35;3.95;;;2.85;;
44000;SDS011;29660;42.892;24.710;2023-06-10T12:53:03;8.48;;;3.30;;
44000;SDS011;29660;42.892;24.710;2023-06-10T12:58:25;4.32;;;2.88;;
44000;SDS011;29660;42.892;24.710;2023-06-10T13:03:48;5.97;;;3.20;;
44000;SDS011;29660;42.892;24.710;2023-06-10T13:09:10;5.13;;;3.15;;
44000;SDS011;29660;42.892;24.710;2023-06-10T13:14:32;7.35;;;3.00;;
44000;SDS011;29660;42.892;24.710;2023-06-10T13:19:54;4.28;;;3.28;;
44000;SDS011;29660;42.892;24.710;2023-06-10T13:25:17;4.65;;;3.05;;
44000;SDS011;29660;42.892;24.710;2023-06-10T13:30:39;6.07;;;3.97;;
44000;SDS011;29660;42.892;24.710;2023-06-10T13:36:01;14.18;;;12.40;;
44000;SDS011;29660;42.892;24.710;2023-06-10T13:41:24;7.80;;;3.60;;
44000;SDS011;29660;42.892;24.710;2023-06-10T13:46:49;6.38;;;3.28;;
44000;SDS011;29660;42.892;24.710;2023-06-10T13:52:11;4.75;;;3.10;;
44000;SDS011;29660;42.892;24.710;2023-06-10T13:57:33;7.80;;;3.00;;
44000;SDS011;29660;42.892;24.710;2023-06-10T14:02:56;6.85;;;3.38;;
44000;SDS011;29660;42.892;24.710;2023-06-10T14:08:18;4.07;;;3.42;;
44000;SDS011;29660;42.892;24.710;2023-06-10T14:13:41;5.57;;;3.90;;
44000;SDS011;29660;42.892;24.710;2023-06-10T14:19:03;5.22;;;3.08;;
44000;SDS011;29660;42.892;24.710;2023-06-10T14:24:26;3.88;;;2.40;;
44000;SDS011;29660;42.892;24.710;2023-06-10T14:29:48;5.40;;;3.08;;
44000;SDS011;29660;42.892;24.710;2023-06-10T14:35:10;4.30;;;2.72;;
44000;SDS011;29660;42.892;24.710;2023-06-10T14:40:32;5.72;;;3.28;;
44000;SDS011;29660;42.892;24.710;2023-06-10T14:45:55;7.03;;;3.53;;
44000;SDS011;29660;42.892;24.710;2023-06-10T14:51:17;3.90;;;3.17;;
44000;SDS011;29660;42.892;24.710;2023-06-10T14:56:40;8.93;;;3.53;;
44000;SDS011;29660;42.892;24.710;2023-06-10T15:02:02;8.50;;;4.38;;
44000;SDS011;29660;42.892;24.710;2023-06-10T15:07:24;5.38;;;2.97;;
44000;SDS011;29660;42.892;24.710;2023-06-10T15:12:46;7.60;;;3.47;;
44000;SDS011;29660;42.892;24.710;2023-06-10T15:18:09;6.78;;;3.80;;
44000;SDS011;29660;42.892;24.710;2023-06-10T15:23:31;5.15;;;3.10;;
44000;SDS011;29660;42.892;24.710;2023-06-10T15:28:53;5.43;;;3.22;;
44000;SDS011;29660;42.892;24.710;2023-06-10T15:34:15;9.32;;;3.60;;
44000;SDS011;29660;42.892;24.710;2023-06-10T15:39:38;5.53;;;3.20;;
44000;SDS011;29660;42.892;24.710;2023-06-10T15:45:00;4.97;;;4.00;;
44000;SDS011;29660;42.892;24.710;2023-06-10T15:50:23;8.25;;;5.00;;
44000;SDS011;29660;42.892;24.710;2023-06-10T15:55:45;7.10;;;3.25;;
44000;SDS011;29660;42.892;24.710;2023-06-10T16:01:08;3.80;;;3.05;;
44000;SDS011;29660;42.892;24.710;2023-06-10T16:06:31;5.25;;;3.30;;
44000;SDS011;29660;42.892;24.710;2023-06-10T16:11:53;9.00;;;4.18;;
44000;SDS011;29660;42.892;24.710;2023-06-10T16:17:15;6.65;;;3.83;;
44000;SDS011;29660;42.892;24.710;2023-06-10T16:22:37;9.80;;;3.50;;
44000;SDS011;29660;42.892;24.710;2023-06-10T16:28:00;8.05;;;4.40;;
44000;SDS011;29660;42.892;24.710;2023-06-10T16:33:24;7.75;;;3.75;;
44000;SDS011;29660;42.892;24.710;2023-06-10T16:38:46;6.70;;;4.85;;
44000;SDS011;29660;42.892;24.710;2023-06-10T16:44:08;10.75;;;4.03;;
44000;SDS011;29660;42.892;24.710;2023-06-10T16:49:30;6.88;;;3.83;;
44000;SDS011;29660;42.892;24.710;2023-06-10T16:54:52;7.88;;;3.72;;
44000;SDS011;29660;42.892;24.710;2023-06-10T17:00:15;7.25;;;4.40;;
44000;SDS011;29660;42.892;24.710;2023-06-10T17:05:38;7.68;;;4.43;;
44000;SDS011;29660;42.892;24.710;2023-06-10T17:11:00;7.50;;;3.95;;
44000;SDS011;29660;42.892;24.710;2023-06-10T17:16:23;7.85;;;4.10;;
44000;SDS011;29660;42.892;24.710;2023-06-10T17:21:45;6.50;;;4.10;;
44000;SDS011;29660;42.892;24.710;2023-06-10T17:27:07;7.03;;;4.22;;
44000;SDS011;29660;42.892;24.710;2023-06-10T17:32:29;9.52;;;4.72;;
44000;SDS011;29660;42.892;24.710;2023-06-10T17:37:55;9.13;;;4.90;;
44000;SDS011;29660;42.892;24.710;2023-06-10T17:43:18;6.22;;;4.57;;
44000;SDS011;29660;42.892;24.710;2023-06-10T17:48:43;10.35;;;5.70;;
44000;SDS011;29660;42.892;24.710;2023-06-10T17:54:05;12.65;;;8.88;;
44000;SDS011;29660;42.892;24.710;2023-06-10T17:59:29;11.70;;;6.65;;
44000;SDS011;29660;42.892;24.710;2023-06-10T18:04:52;8.77;;;5.50;;
44000;SDS011;29660;42.892;24.710;2023-06-10T18:10:14;9.82;;;6.07;;
44000;SDS011;29660;42.892;24.710;2023-06-10T18:15:36;10.40;;;5.20;;
44000;SDS011;29660;42.892;24.710;2023-06-10T18:20:58;7.80;;;5.32;;
44000;SDS011;29660;42.892;24.710;2023-06-10T18:26:23;11.70;;;5.80;;
44000;SDS011;29660;42.892;24.710;2023-06-10T18:31:46;7.05;;;5.03;;
44000;SDS011;29660;42.892;24.710;2023-06-10T18:37:08;7.88;;;5.20;;
44000;SDS011;29660;42.892;24.710;2023-06-10T18:42:32;7.90;;;5.25;;
44000;SDS011;29660;42.892;24.710;2023-06-10T18:47:54;12.05;;;5.82;;
44000;SDS011;29660;42.892;24.710;2023-06-10T18:53:19;10.35;;;6.32;;
44000;SDS011;29660;42.892;24.710;2023-06-10T18:58:41;11.05;;;5.93;;
44000;SDS011;29660;42.892;24.710;2023-06-10T19:04:05;9.88;;;5.32;;
44000;SDS011;29660;42.892;24.710;2023-06-10T19:09:27;9.52;;;5.75;;
44000;SDS011;29660;42.892;24.710;2023-06-10T19:14:50;7.38;;;5.45;;
44000;SDS011;29660;42.892;24.710;2023-06-10T19:20:12;8.90;;;5.88;;
44000;SDS011;29660;42.892;24.710;2023-06-10T19:25:34;15.10;;;11.88;;
44000;SDS011;29660;42.892;24.710;2023-06-10T19:30:56;9.63;;;6.40;;
44000;SDS011;29660;42.892;24.710;2023-06-10T19:36:18;11.30;;;5.97;;
44000;SDS011;29660;42.892;24.710;2023-06-10T19:41:41;9.43;;;5.80;;
44000;SDS011;29660;42.892;24.710;2023-06-10T19:47:04;10.88;;;5.72;;
44000;SDS011;29660;42.892;24.710;2023-06-10T19:52:27;9.45;;;5.32;;
44000;SDS011;29660;42.892;24.710;2023-06-10T19:57:49;9.02;;;5.40;;
44000;SDS011;29660;42.892;24.710;2023-06-10T20:03:11;6.95;;;5.10;;
44000;SDS011;29660;42.892;24.710;2023-06-10T20:08:34;13.73;;;9.07;;
44000;SDS011;29660;42.892;24.710;2023-06-10T20:13:56;10.05;;;5.97;;
44000;SDS011;29660;42.892;24.710;2023-06-10T20:19:19;13.30;;;6.30;;
44000;SDS011;29660;42.892;24.710;2023-06-10T20:24:41;7.90;;;6.10;;
44000;SDS011;29660;42.892;24.710;2023-06-10T20:30:04;8.23;;;6.47;;
44000;SDS011;29660;42.892;24.710;2023-06-10T20:35:26;12.82;;;9.38;;
44000;SDS011;29660;42.892;24.710;2023-06-10T20:40:48;8.88;;;6.68;;
44000;SDS011;29660;42.892;24.710;2023-06-10T20:46:11;12.35;;;7.63;;
44000;SDS011;29660;42.892;24.710;2023-06-10T20:51:33;8.30;;;6.78;;
44000;SDS011;29660;42.892;24.710;2023-06-10T20:56:55;7.50;;;5.85;;
44000;SDS011;29660;42.892;24.710;2023-06-10T21:02:17;8.18;;;6.07;;
44000;SDS011;29660;42.892;24.710;2023-06-10T21:07:40;9.02;;;6.57;;
44000;SDS011;29660;42.892;24.710;2023-06-10T21:13:06;12.32;;;6.43;;
44000;SDS011;29660;42.892;24.710;2023-06-10T21:18:28;7.05;;;6.13;;
44000;SDS011;29660;42.892;24.710;2023-06-10T21:23:52;10.15;;;6.57;;
44000;SDS011;29660;42.892;24.710;2023-06-10T21:29:16;7.30;;;5.55;;
44000;SDS011;29660;42.892;24.710;2023-06-10T21:34:38;6.97;;;5.80;;
44000;SDS011;29660;42.892;24.710;2023-06-10T21:40:00;11.07;;;6.40;;
44000;SDS011;29660;42.892;24.710;2023-06-10T21:45:22;9.50;;;7.63;;
44000;SDS011;29660;42.892;24.710;2023-06-10T21:50:45;8.57;;;6.32;;
44000;SDS011;29660;42.892;24.710;2023-06-10T21:56:07;9.20;;;6.40;;
44000;SDS011;29660;42.892;24.710;2023-06-10T22:01:29;8.82;;;5.78;;
44000;SDS011;29660;42.892;24.710;2023-06-10T22:06:57;7.55;;;5.20;;
44000;SDS011;29660;42.892;24.710;2023-06-10T22:12:20;9.95;;;6.20;;
44000;SDS011;29660;42.892;24.710;2023-06-10T22:17:42;9.60;;;6.32;;
44000;SDS011;29660;42.892;24.710;2023-06-10T22:23:04;7.25;;;6.43;;
44000;SDS011;29660;42.892;24.710;2023-06-10T22:28:26;9.25;;;6.03;;
44000;SDS011;29660;42.892;24.710;2023-06-10T22:33:49;7.35;;;6.63;;
44000;SDS011;29660;42.892;24.710;2023-06-10T22:39:11;13.07;;;5.82;;
44000;SDS011;29660;42.892;24.710;2023-06-10T22:44:34;6.97;;;5.30;;
44000;SDS011;29660;42.892;24.710;2023-06-10T22:49:56;6.95;;;5.57;;
44000;SDS011;29660;42.892;24.710;2023-06-10T22:55:18;9.82;;;6.25;;
44000;SDS011;29660;42.892;24.710;2023-06-10T23:00:40;8.38;;;5.78;;
44000;SDS011;29660;42.892;24.710;2023-06-10T23:06:03;10.35;;;5.97;;
44000;SDS011;29660;42.892;24.710;2023-06-10T23:11:25;10.23;;;6.22;;
44000;SDS011;29660;42.892;24.710;2023-06-10T23:16:47;7.68;;;5.95;;
44000;SDS011;29660;42.892;24.710;2023-06-10T23:22:09;9.18;;;6.32;;
44000;SDS011;29660;42.892;24.710;2023-06-10T23:27:32;7.80;;;5.70;;
44000;SDS011;29660;42.892;24.710;2023-06-10T23:32:54;8.57;;;6.07;;
44000;SDS011;29660;42.892;24.710;2023-06-10T23:38:16;7.95;;;5.75;;
44000;SDS011;29660;42.892;24.710;2023-06-10T23:43:38;7.95;;;5.75;;
44000;SDS011;29660;42.892;24.710;2023-06-10T23:49:01;6.53;;;5.80;;
44000;SDS011;29660;42.892;24.710;2023-06-10T23:54:25;7.10;;;5.97;;
44000;SDS011;29660;42.892;24.710;2023-06-10T23:59:47;7.10;;;6.05;;
